San Ysidro, CA (92143)

2:28 PM PST on February 05, 2016 (GMT -0800)
Brown Municipal | | Change Station
CLOSE
Current Station
Airport
Location: San Diego Brown,
Elevation: 525 ft
Nearby Weather Stations
Active Advisory: Beach Hazard Statement

Elev 525 ft 32.57 °N, 116.98 °W | Updated 35 minutes ago

Clear
Clear
72 °F
Feels Like 72 °F
N
8
Wind Variable Wind from WNW

Today
High -- | Low -- °F
--% Chance of Precip.
Yesterday
High -- | Low -- °F
Precip. -- in
Pressure 30.21 in
Visibility 10.0 miles
Clouds Clear
Dew Point 28 °F
Humidity 20%
Rainfall 0.00 in
Snow Depth Not available.
6:39 AM 5:24 PM
Waning Crescent, 9% visible
METAR KSDM 052153Z 29007KT 10SM CLR 22/M02 A3021 RMK AO2 SLP229 T02221022
Pressure 30.21 in
Visibility 10.0 miles
Clouds Clear
Dew Point 28 °F
Humidity 20%
Rainfall 0.00 in
Snow Depth Not available.
6:39 AM 5:24 PM
Waning Crescent, 9% visible
METAR KSDM 052153Z 29007KT 10SM CLR 22/M02 A3021 RMK AO2 SLP229 T02221022

10-Day Weather Forecast

Almanac

Astronomy

Feb. 05, 2016 Rise Set
Actual Time
Civil Twilight
Nautical Twilight
Astronomical Twilight
Moon
Length of Visible Light
Length of Day
Tomorrow will be .
, % of the Moon is Illuminated

Today's Extremes

State Highs State Lows

Community

WunderPhotos

Upload Photos

1,890,878 photos uploaded!

WunderBlog® & News

Nearby

Air Quality

  Air Quality AQ Index Pollutant
Not available.

Snow Depth

Station Depth Elevation

Earthquake Activity

City Distance Mag. Time & Date
Minimum magnitude displayed is 2.5.

Coastal Water Temperatures

Place Temperature

Stations

Nearby Weather Stations

Station Location Temp. Windchill Dew Point Humidity Wind Precip. Elev Updated Type
                   

Watches & Warnings

Beach Hazard Statement
Issued: 1:26 PM PST Feb. 5, 2016 – National Weather Service

... Beach hazards statement remains in effect until 10 PM PST this
evening...

* swell... 8 to 9 feet at 18 seconds from the northwest around
290 degrees.

* Surf... 3 to 6 feet with local sets to 7 feet. Highest surf
north of Newport Beach and south of del Mar.

* Timing... through this evening.

* Impacts... high surf and strong rip currents will create
dangerous swimming conditions. Minor beach erosion is also
possible. Larger waves may over-top jetties or sea walls at
times.

Precautionary/preparedness actions...

A beach hazards statement is issued when threats such as strong
rip currents... elevated surf heights... minor tidal overflow... or
lightning are possible at local beaches. Obey posted warning
signs and flags and talk to a lifeguard before swimming. Use
caution when in or near the water and always swim near a
lifeguard.



Ts
http://www.Weather.Gov/sandiego